sensor_id;sensor_type;location;lat;lon;timestamp;P1;durP1;ratioP1;P2;durP2;ratioP2
14377;SDS011;7272;53.668;9.578;2023-02-03T00:01:51;8.90;;;8.03;;
14377;SDS011;7272;53.668;9.578;2023-02-03T00:04:53;9.20;;;8.40;;
14377;SDS011;7272;53.668;9.578;2023-02-03T00:07:55;9.10;;;8.30;;
14377;SDS011;7272;53.668;9.578;2023-02-03T00:10:58;9.50;;;8.57;;
14377;SDS011;7272;53.668;9.578;2023-02-03T00:14:00;11.30;;;9.97;;
14377;SDS011;7272;53.668;9.578;2023-02-03T00:17:05;10.03;;;8.70;;
14377;SDS011;7272;53.668;9.578;2023-02-03T00:20:08;9.53;;;8.60;;
14377;SDS011;7272;53.668;9.578;2023-02-03T00:23:11;12.30;;;9.03;;
14377;SDS011;7272;53.668;9.578;2023-02-03T00:26:13;9.87;;;7.97;;
14377;SDS011;7272;53.668;9.578;2023-02-03T00:29:18;11.97;;;8.77;;
14377;SDS011;7272;53.668;9.578;2023-02-03T00:32:25;9.37;;;7.13;;
14377;SDS011;7272;53.668;9.578;2023-02-03T00:35:27;11.87;;;8.80;;
14377;SDS011;7272;53.668;9.578;2023-02-03T00:38:29;10.93;;;8.37;;
14377;SDS011;7272;53.668;9.578;2023-02-03T00:41:31;11.03;;;8.27;;
14377;SDS011;7272;53.668;9.578;2023-02-03T00:44:33;10.97;;;8.60;;
14377;SDS011;7272;53.668;9.578;2023-02-03T00:47:36;11.87;;;8.63;;
14377;SDS011;7272;53.668;9.578;2023-02-03T00:50:38;10.17;;;8.20;;
14377;SDS011;7272;53.668;9.578;2023-02-03T00:53:40;12.47;;;8.80;;
14377;SDS011;7272;53.668;9.578;2023-02-03T00:56:42;9.33;;;7.30;;
14377;SDS011;7272;53.668;9.578;2023-02-03T00:59:45;9.07;;;6.87;;
14377;SDS011;7272;53.668;9.578;2023-02-03T01:02:48;8.20;;;6.80;;
14377;SDS011;7272;53.668;9.578;2023-02-03T01:05:50;8.80;;;6.43;;
14377;SDS011;7272;53.668;9.578;2023-02-03T01:08:53;13.73;;;7.00;;
14377;SDS011;7272;53.668;9.578;2023-02-03T01:11:55;9.97;;;6.47;;
14377;SDS011;7272;53.668;9.578;2023-02-03T01:14:57;9.43;;;6.43;;
14377;SDS011;7272;53.668;9.578;2023-02-03T01:18:00;10.23;;;6.53;;
14377;SDS011;7272;53.668;9.578;2023-02-03T01:21:06;10.03;;;6.10;;
14377;SDS011;7272;53.668;9.578;2023-02-03T01:24:09;7.27;;;5.50;;
14377;SDS011;7272;53.668;9.578;2023-02-03T01:27:12;10.23;;;5.00;;
14377;SDS011;7272;53.668;9.578;2023-02-03T01:30:14;7.37;;;5.47;;
14377;SDS011;7272;53.668;9.578;2023-02-03T01:33:17;6.17;;;5.00;;
14377;SDS011;7272;53.668;9.578;2023-02-03T01:36:20;9.00;;;5.07;;
14377;SDS011;7272;53.668;9.578;2023-02-03T01:39:24;8.90;;;5.27;;
14377;SDS011;7272;53.668;9.578;2023-02-03T01:42:26;9.03;;;4.63;;
14377;SDS011;7272;53.668;9.578;2023-02-03T01:45:32;6.13;;;4.20;;
14377;SDS011;7272;53.668;9.578;2023-02-03T01:48:36;5.30;;;4.40;;
14377;SDS011;7272;53.668;9.578;2023-02-03T01:51:39;6.60;;;4.17;;
14377;SDS011;7272;53.668;9.578;2023-02-03T01:54:43;6.63;;;4.10;;
14377;SDS011;7272;53.668;9.578;2023-02-03T01:57:49;7.00;;;4.33;;
14377;SDS011;7272;53.668;9.578;2023-02-03T02:00:54;7.80;;;4.63;;
14377;SDS011;7272;53.668;9.578;2023-02-03T02:03:59;6.37;;;4.23;;
14377;SDS011;7272;53.668;9.578;2023-02-03T02:07:03;7.67;;;4.10;;
14377;SDS011;7272;53.668;9.578;2023-02-03T02:10:06;6.23;;;4.13;;
14377;SDS011;7272;53.668;9.578;2023-02-03T02:13:09;6.10;;;4.30;;
14377;SDS011;7272;53.668;9.578;2023-02-03T02:16:14;7.03;;;4.43;;
14377;SDS011;7272;53.668;9.578;2023-02-03T02:19:30;6.87;;;4.50;;
14377;SDS011;7272;53.668;9.578;2023-02-03T02:22:58;6.97;;;3.97;;
14377;SDS011;7272;53.668;9.578;2023-02-03T02:26:20;5.67;;;4.00;;
14377;SDS011;7272;53.668;9.578;2023-02-03T02:29:51;6.70;;;4.20;;
14377;SDS011;7272;53.668;9.578;2023-02-03T02:33:16;7.93;;;4.55;;
14377;SDS011;7272;53.668;9.578;2023-02-03T02:36:29;5.07;;;3.77;;
14377;SDS011;7272;53.668;9.578;2023-02-03T02:39:36;5.88;;;4.18;;
14377;SDS011;7272;53.668;9.578;2023-02-03T02:42:45;7.73;;;4.53;;
14377;SDS011;7272;53.668;9.578;2023-02-03T02:46:00;5.77;;;3.30;;
14377;SDS011;7272;53.668;9.578;2023-02-03T02:49:11;5.10;;;3.80;;
14377;SDS011;7272;53.668;9.578;2023-02-03T02:52:17;6.37;;;3.60;;
14377;SDS011;7272;53.668;9.578;2023-02-03T02:55:21;4.87;;;3.30;;
14377;SDS011;7272;53.668;9.578;2023-02-03T02:58:29;5.90;;;3.37;;
14377;SDS011;7272;53.668;9.578;2023-02-03T03:01:34;5.97;;;3.60;;
14377;SDS011;7272;53.668;9.578;2023-02-03T03:04:37;4.50;;;3.43;;
14377;SDS011;7272;53.668;9.578;2023-02-03T03:07:41;10.53;;;3.50;;
14377;SDS011;7272;53.668;9.578;2023-02-03T03:10:48;6.00;;;3.23;;
14377;SDS011;7272;53.668;9.578;2023-02-03T03:13:52;5.50;;;3.30;;
14377;SDS011;7272;53.668;9.578;2023-02-03T03:16:56;6.43;;;3.30;;
14377;SDS011;7272;53.668;9.578;2023-02-03T03:20:05;8.50;;;3.37;;
14377;SDS011;7272;53.668;9.578;2023-02-03T03:23:13;7.43;;;3.20;;
14377;SDS011;7272;53.668;9.578;2023-02-03T03:26:21;8.20;;;3.03;;
14377;SDS011;7272;53.668;9.578;2023-02-03T03:29:29;7.90;;;3.33;;
14377;SDS011;7272;53.668;9.578;2023-02-03T03:32:34;5.83;;;3.50;;
14377;SDS011;7272;53.668;9.578;2023-02-03T03:35:40;9.43;;;3.60;;
14377;SDS011;7272;53.668;9.578;2023-02-03T03:38:48;7.00;;;3.47;;
14377;SDS011;7272;53.668;9.578;2023-02-03T03:41:56;7.07;;;4.13;;
14377;SDS011;7272;53.668;9.578;2023-02-03T03:45:02;8.40;;;3.80;;
14377;SDS011;7272;53.668;9.578;2023-02-03T03:48:08;10.17;;;3.73;;
14377;SDS011;7272;53.668;9.578;2023-02-03T03:51:17;6.37;;;3.43;;
14377;SDS011;7272;53.668;9.578;2023-02-03T03:54:22;8.83;;;3.73;;
14377;SDS011;7272;53.668;9.578;2023-02-03T03:57:25;9.00;;;4.13;;
14377;SDS011;7272;53.668;9.578;2023-02-03T04:00:33;7.17;;;3.93;;
14377;SDS011;7272;53.668;9.578;2023-02-03T04:03:38;9.17;;;4.10;;
14377;SDS011;7272;53.668;9.578;2023-02-03T04:06:46;6.27;;;4.00;;
14377;SDS011;7272;53.668;9.578;2023-02-03T04:09:48;8.10;;;4.50;;
14377;SDS011;7272;53.668;9.578;2023-02-03T04:12:50;6.87;;;4.20;;
14377;SDS011;7272;53.668;9.578;2023-02-03T04:15:51;8.03;;;4.77;;
14377;SDS011;7272;53.668;9.578;2023-02-03T04:18:53;8.60;;;4.30;;
14377;SDS011;7272;53.668;9.578;2023-02-03T04:21:56;11.30;;;5.23;;
14377;SDS011;7272;53.668;9.578;2023-02-03T04:24:58;9.13;;;4.63;;
14377;SDS011;7272;53.668;9.578;2023-02-03T04:28:00;7.13;;;4.53;;
14377;SDS011;7272;53.668;9.578;2023-02-03T04:31:02;6.10;;;4.40;;
14377;SDS011;7272;53.668;9.578;2023-02-03T04:34:04;8.33;;;5.10;;
14377;SDS011;7272;53.668;9.578;2023-02-03T04:37:08;7.10;;;4.87;;
14377;SDS011;7272;53.668;9.578;2023-02-03T04:40:10;7.57;;;5.20;;
14377;SDS011;7272;53.668;9.578;2023-02-03T04:43:13;7.30;;;5.30;;
14377;SDS011;7272;53.668;9.578;2023-02-03T04:46:16;10.67;;;5.33;;
14377;SDS011;7272;53.668;9.578;2023-02-03T04:49:18;7.93;;;5.50;;
14377;SDS011;7272;53.668;9.578;2023-02-03T04:52:22;8.27;;;5.03;;
14377;SDS011;7272;53.668;9.578;2023-02-03T04:55:24;12.03;;;5.83;;
14377;SDS011;7272;53.668;9.578;2023-02-03T04:58:26;10.27;;;6.68;;
14377;SDS011;7272;53.668;9.578;2023-02-03T05:01:28;10.70;;;5.80;;
14377;SDS011;7272;53.668;9.578;2023-02-03T05:04:31;6.63;;;5.10;;
14377;SDS011;7272;53.668;9.578;2023-02-03T05:07:34;7.17;;;4.77;;
14377;SDS011;7272;53.668;9.578;2023-02-03T05:10:37;9.27;;;5.23;;
14377;SDS011;7272;53.668;9.578;2023-02-03T05:13:39;9.47;;;5.37;;
14377;SDS011;7272;53.668;9.578;2023-02-03T05:16:41;9.70;;;5.20;;
14377;SDS011;7272;53.668;9.578;2023-02-03T05:19:43;8.93;;;4.80;;
14377;SDS011;7272;53.668;9.578;2023-02-03T05:22:47;7.73;;;4.10;;
14377;SDS011;7272;53.668;9.578;2023-02-03T05:25:49;9.50;;;4.67;;
14377;SDS011;7272;53.668;9.578;2023-02-03T05:28:51;8.27;;;4.60;;
14377;SDS011;7272;53.668;9.578;2023-02-03T05:31:53;6.53;;;4.53;;
14377;SDS011;7272;53.668;9.578;2023-02-03T05:34:55;11.00;;;3.83;;
14377;SDS011;7272;53.668;9.578;2023-02-03T05:37:58;6.47;;;3.70;;
14377;SDS011;7272;53.668;9.578;2023-02-03T05:41:00;8.10;;;4.13;;
14377;SDS011;7272;53.668;9.578;2023-02-03T05:44:20;7.47;;;4.00;;
14377;SDS011;7272;53.668;9.578;2023-02-03T05:47:22;7.30;;;4.03;;
14377;SDS011;7272;53.668;9.578;2023-02-03T05:50:24;9.03;;;4.60;;
14377;SDS011;7272;53.668;9.578;2023-02-03T05:53:41;6.60;;;4.17;;
14377;SDS011;7272;53.668;9.578;2023-02-03T05:56:43;7.17;;;3.83;;
14377;SDS011;7272;53.668;9.578;2023-02-03T05:59:45;8.87;;;4.20;;
14377;SDS011;7272;53.668;9.578;2023-02-03T06:02:51;9.57;;;4.07;;
14377;SDS011;7272;53.668;9.578;2023-02-03T06:05:54;6.97;;;4.10;;
14377;SDS011;7272;53.668;9.578;2023-02-03T06:08:57;7.07;;;4.50;;
14377;SDS011;7272;53.668;9.578;2023-02-03T06:11:59;14.00;;;5.00;;
14377;SDS011;7272;53.668;9.578;2023-02-03T06:15:01;11.07;;;4.53;;
14377;SDS011;7272;53.668;9.578;2023-02-03T06:18:04;11.57;;;4.60;;
14377;SDS011;7272;53.668;9.578;2023-02-03T06:21:06;8.73;;;4.57;;
14377;SDS011;7272;53.668;9.578;2023-02-03T06:24:10;14.40;;;4.73;;
14377;SDS011;7272;53.668;9.578;2023-02-03T06:27:12;8.40;;;4.10;;
14377;SDS011;7272;53.668;9.578;2023-02-03T06:30:14;11.87;;;5.50;;
14377;SDS011;7272;53.668;9.578;2023-02-03T06:33:16;11.17;;;4.70;;
14377;SDS011;7272;53.668;9.578;2023-02-03T06:36:18;10.50;;;4.80;;
14377;SDS011;7272;53.668;9.578;2023-02-03T06:39:22;9.90;;;4.60;;
14377;SDS011;7272;53.668;9.578;2023-02-03T06:42:24;7.90;;;4.70;;
14377;SDS011;7272;53.668;9.578;2023-02-03T06:45:26;12.17;;;5.73;;
14377;SDS011;7272;53.668;9.578;2023-02-03T06:48:28;11.50;;;4.73;;
14377;SDS011;7272;53.668;9.578;2023-02-03T06:51:30;7.60;;;4.50;;
14377;SDS011;7272;53.668;9.578;2023-02-03T06:54:33;13.70;;;4.77;;
14377;SDS011;7272;53.668;9.578;2023-02-03T06:57:38;12.93;;;5.27;;
14377;SDS011;7272;53.668;9.578;2023-02-03T07:00:43;12.80;;;5.53;;
14377;SDS011;7272;53.668;9.578;2023-02-03T07:03:45;13.68;;;5.10;;
14377;SDS011;7272;53.668;9.578;2023-02-03T07:06:47;12.23;;;5.30;;
14377;SDS011;7272;53.668;9.578;2023-02-03T07:09:51;11.27;;;5.30;;
14377;SDS011;7272;53.668;9.578;2023-02-03T07:12:53;10.73;;;5.13;;
14377;SDS011;7272;53.668;9.578;2023-02-03T07:15:54;12.17;;;4.53;;
14377;SDS011;7272;53.668;9.578;2023-02-03T07:18:56;10.03;;;5.13;;
14377;SDS011;7272;53.668;9.578;2023-02-03T07:21:59;11.07;;;4.73;;
14377;SDS011;7272;53.668;9.578;2023-02-03T07:25:02;13.97;;;5.10;;
14377;SDS011;7272;53.668;9.578;2023-02-03T07:28:04;11.53;;;4.87;;
14377;SDS011;7272;53.668;9.578;2023-02-03T07:31:07;13.77;;;5.70;;
14377;SDS011;7272;53.668;9.578;2023-02-03T07:34:09;12.53;;;5.20;;
14377;SDS011;7272;53.668;9.578;2023-02-03T07:37:11;15.40;;;5.37;;
14377;SDS011;7272;53.668;9.578;2023-02-03T07:40:14;9.03;;;4.60;;
14377;SDS011;7272;53.668;9.578;2023-02-03T07:43:17;14.60;;;5.03;;
14377;SDS011;7272;53.668;9.578;2023-02-03T07:46:19;13.57;;;4.87;;
14377;SDS011;7272;53.668;9.578;2023-02-03T07:49:21;10.83;;;5.00;;
14377;SDS011;7272;53.668;9.578;2023-02-03T07:52:23;13.63;;;5.13;;
14377;SDS011;7272;53.668;9.578;2023-02-03T07:55:26;17.50;;;5.20;;
14377;SDS011;7272;53.668;9.578;2023-02-03T07:58:28;15.93;;;5.03;;
14377;SDS011;7272;53.668;9.578;2023-02-03T08:01:31;15.43;;;6.30;;
14377;SDS011;7272;53.668;9.578;2023-02-03T08:04:33;13.27;;;5.30;;
14377;SDS011;7272;53.668;9.578;2023-02-03T08:07:35;16.00;;;5.43;;
14377;SDS011;7272;53.668;9.578;2023-02-03T08:10:38;17.57;;;4.33;;
14377;SDS011;7272;53.668;9.578;2023-02-03T08:13:40;14.57;;;4.83;;
14377;SDS011;7272;53.668;9.578;2023-02-03T08:16:42;14.53;;;5.10;;
14377;SDS011;7272;53.668;9.578;2023-02-03T08:19:45;19.10;;;6.07;;
14377;SDS011;7272;53.668;9.578;2023-02-03T08:22:47;15.30;;;5.30;;
14377;SDS011;7272;53.668;9.578;2023-02-03T08:25:51;14.13;;;4.77;;
14377;SDS011;7272;53.668;9.578;2023-02-03T08:28:53;22.07;;;4.97;;
14377;SDS011;7272;53.668;9.578;2023-02-03T08:31:55;14.57;;;5.27;;
14377;SDS011;7272;53.668;9.578;2023-02-03T08:34:57;16.53;;;4.50;;
14377;SDS011;7272;53.668;9.578;2023-02-03T08:37:59;19.13;;;5.03;;
14377;SDS011;7272;53.668;9.578;2023-02-03T08:41:05;11.87;;;4.50;;
14377;SDS011;7272;53.668;9.578;2023-02-03T08:44:09;17.03;;;5.23;;
14377;SDS011;7272;53.668;9.578;2023-02-03T08:47:11;18.20;;;6.63;;
14377;SDS011;7272;53.668;9.578;2023-02-03T08:50:13;18.17;;;5.50;;
14377;SDS011;7272;53.668;9.578;2023-02-03T08:53:16;17.17;;;5.37;;
14377;SDS011;7272;53.668;9.578;2023-02-03T08:56:19;20.13;;;6.13;;
14377;SDS011;7272;53.668;9.578;2023-02-03T08:59:21;21.63;;;6.63;;
14377;SDS011;7272;53.668;9.578;2023-02-03T09:02:23;18.70;;;6.00;;
14377;SDS011;7272;53.668;9.578;2023-02-03T09:05:25;26.73;;;6.50;;
14377;SDS011;7272;53.668;9.578;2023-02-03T09:08:27;26.37;;;6.43;;
14377;SDS011;7272;53.668;9.578;2023-02-03T09:11:30;25.93;;;6.80;;
14377;SDS011;7272;53.668;9.578;2023-02-03T09:14:33;25.90;;;7.57;;
14377;SDS011;7272;53.668;9.578;2023-02-03T09:17:35;21.50;;;6.67;;
14377;SDS011;7272;53.668;9.578;2023-02-03T09:20:37;26.07;;;6.53;;
14377;SDS011;7272;53.668;9.578;2023-02-03T09:23:39;26.83;;;7.50;;
14377;SDS011;7272;53.668;9.578;2023-02-03T09:26:42;26.67;;;7.97;;
14377;SDS011;7272;53.668;9.578;2023-02-03T09:29:44;25.90;;;7.77;;
14377;SDS011;7272;53.668;9.578;2023-02-03T09:32:47;27.30;;;8.17;;
14377;SDS011;7272;53.668;9.578;2023-02-03T09:35:53;25.43;;;7.40;;
14377;SDS011;7272;53.668;9.578;2023-02-03T09:38:55;27.50;;;8.30;;
14377;SDS011;7272;53.668;9.578;2023-02-03T09:42:05;33.90;;;9.10;;
14377;SDS011;7272;53.668;9.578;2023-02-03T09:45:28;32.43;;;9.50;;
14377;SDS011;7272;53.668;9.578;2023-02-03T09:48:32;31.83;;;9.30;;
14377;SDS011;7272;53.668;9.578;2023-02-03T09:51:39;29.87;;;9.47;;
14377;SDS011;7272;53.668;9.578;2023-02-03T09:54:47;25.57;;;8.90;;
14377;SDS011;7272;53.668;9.578;2023-02-03T09:57:57;26.57;;;8.67;;
14377;SDS011;7272;53.668;9.578;2023-02-03T10:01:05;26.53;;;8.83;;
14377;SDS011;7272;53.668;9.578;2023-02-03T10:04:16;28.03;;;9.73;;
14377;SDS011;7272;53.668;9.578;2023-02-03T10:07:28;25.97;;;8.80;;
14377;SDS011;7272;53.668;9.578;2023-02-03T10:10:40;28.80;;;8.60;;
14377;SDS011;7272;53.668;9.578;2023-02-03T10:13:51;32.37;;;9.13;;
14377;SDS011;7272;53.668;9.578;2023-02-03T10:17:07;27.07;;;8.33;;
14377;SDS011;7272;53.668;9.578;2023-02-03T10:20:20;20.60;;;7.80;;
14377;SDS011;7272;53.668;9.578;2023-02-03T10:23:32;29.47;;;9.47;;
14377;SDS011;7272;53.668;9.578;2023-02-03T10:26:37;29.93;;;9.53;;
14377;SDS011;7272;53.668;9.578;2023-02-03T10:29:41;25.10;;;7.97;;
14377;SDS011;7272;53.668;9.578;2023-02-03T10:32:44;26.73;;;8.00;;
14377;SDS011;7272;53.668;9.578;2023-02-03T10:35:48;25.55;;;10.50;;
14377;SDS011;7272;53.668;9.578;2023-02-03T10:38:54;27.33;;;9.10;;
14377;SDS011;7272;53.668;9.578;2023-02-03T10:42:00;27.90;;;9.47;;
14377;SDS011;7272;53.668;9.578;2023-02-03T10:45:04;23.33;;;8.27;;
14377;SDS011;7272;53.668;9.578;2023-02-03T10:48:10;28.73;;;8.23;;
14377;SDS011;7272;53.668;9.578;2023-02-03T10:51:17;29.63;;;9.07;;
14377;SDS011;7272;53.668;9.578;2023-02-03T10:54:26;28.57;;;10.20;;
14377;SDS011;7272;53.668;9.578;2023-02-03T10:57:33;30.77;;;8.77;;
14377;SDS011;7272;53.668;9.578;2023-02-03T11:00:38;25.47;;;8.43;;
14377;SDS011;7272;53.668;9.578;2023-02-03T11:03:40;28.33;;;8.73;;
14377;SDS011;7272;53.668;9.578;2023-02-03T11:06:52;24.53;;;7.20;;
14377;SDS011;7272;53.668;9.578;2023-02-03T11:09:55;27.13;;;7.97;;
14377;SDS011;7272;53.668;9.578;2023-02-03T11:13:09;21.27;;;7.67;;
14377;SDS011;7272;53.668;9.578;2023-02-03T11:16:18;23.83;;;7.13;;
14377;SDS011;7272;53.668;9.578;2023-02-03T11:19:20;25.40;;;7.33;;
14377;SDS011;7272;53.668;9.578;2023-02-03T11:22:26;30.50;;;8.83;;
14377;SDS011;7272;53.668;9.578;2023-02-03T11:25:31;25.70;;;8.53;;
14377;SDS011;7272;53.668;9.578;2023-02-03T11:28:33;26.03;;;7.70;;
14377;SDS011;7272;53.668;9.578;2023-02-03T11:31:38;20.13;;;8.27;;
14377;SDS011;7272;53.668;9.578;2023-02-03T11:34:43;29.60;;;7.83;;
14377;SDS011;7272;53.668;9.578;2023-02-03T11:37:48;23.30;;;7.70;;
14377;SDS011;7272;53.668;9.578;2023-02-03T11:40:52;26.97;;;7.57;;
14377;SDS011;7272;53.668;9.578;2023-02-03T11:44:00;23.20;;;7.30;;
14377;SDS011;7272;53.668;9.578;2023-02-03T11:47:13;23.23;;;7.60;;
14377;SDS011;7272;53.668;9.578;2023-02-03T11:50:21;26.17;;;7.87;;
14377;SDS011;7272;53.668;9.578;2023-02-03T11:53:31;30.47;;;7.17;;
14377;SDS011;7272;53.668;9.578;2023-02-03T11:56:55;26.10;;;8.17;;
14377;SDS011;7272;53.668;9.578;2023-02-03T12:00:09;29.30;;;8.23;;
14377;SDS011;7272;53.668;9.578;2023-02-03T12:06:59;27.23;;;8.90;;
14377;SDS011;7272;53.668;9.578;2023-02-03T12:10:11;23.33;;;7.27;;
14377;SDS011;7272;53.668;9.578;2023-02-03T12:13:31;27.45;;;9.02;;
14377;SDS011;7272;53.668;9.578;2023-02-03T12:16:57;29.43;;;8.63;;
14377;SDS011;7272;53.668;9.578;2023-02-03T12:20:23;25.07;;;7.63;;
14377;SDS011;7272;53.668;9.578;2023-02-03T12:23:42;24.57;;;8.10;;
14377;SDS011;7272;53.668;9.578;2023-02-03T12:26:53;25.50;;;8.20;;
14377;SDS011;7272;53.668;9.578;2023-02-03T12:30:02;24.83;;;8.53;;
14377;SDS011;7272;53.668;9.578;2023-02-03T12:33:14;29.20;;;7.67;;
14377;SDS011;7272;53.668;9.578;2023-02-03T12:36:21;28.23;;;8.47;;
14377;SDS011;7272;53.668;9.578;2023-02-03T12:39:27;25.43;;;7.37;;
14377;SDS011;7272;53.668;9.578;2023-02-03T12:42:36;23.37;;;6.47;;
14377;SDS011;7272;53.668;9.578;2023-02-03T12:45:41;23.43;;;7.03;;
14377;SDS011;7272;53.668;9.578;2023-02-03T12:48:53;19.17;;;6.50;;
14377;SDS011;7272;53.668;9.578;2023-02-03T12:52:02;22.17;;;7.53;;
14377;SDS011;7272;53.668;9.578;2023-02-03T12:55:16;28.63;;;7.83;;
14377;SDS011;7272;53.668;9.578;2023-02-03T12:58:22;26.27;;;6.63;;
14377;SDS011;7272;53.668;9.578;2023-02-03T13:01:30;18.40;;;6.30;;
14377;SDS011;7272;53.668;9.578;2023-02-03T13:04:37;25.33;;;7.67;;
14377;SDS011;7272;53.668;9.578;2023-02-03T13:07:47;23.80;;;6.47;;
14377;SDS011;7272;53.668;9.578;2023-02-03T13:10:54;22.57;;;7.27;;
14377;SDS011;7272;53.668;9.578;2023-02-03T13:14:00;24.23;;;7.07;;
14377;SDS011;7272;53.668;9.578;2023-02-03T13:17:12;24.37;;;7.30;;
14377;SDS011;7272;53.668;9.578;2023-02-03T13:20:19;27.03;;;7.53;;
14377;SDS011;7272;53.668;9.578;2023-02-03T13:23:25;29.07;;;7.03;;
14377;SDS011;7272;53.668;9.578;2023-02-03T13:26:33;24.53;;;8.20;;
14377;SDS011;7272;53.668;9.578;2023-02-03T13:29:49;28.58;;;9.50;;
14377;SDS011;7272;53.668;9.578;2023-02-03T13:33:09;21.50;;;7.10;;
14377;SDS011;7272;53.668;9.578;2023-02-03T13:36:43;26.08;;;8.98;;
14377;SDS011;7272;53.668;9.578;2023-02-03T13:40:19;21.40;;;7.90;;
14377;SDS011;7272;53.668;9.578;2023-02-03T13:43:30;21.33;;;6.47;;
14377;SDS011;7272;53.668;9.578;2023-02-03T13:46:35;30.13;;;8.77;;
14377;SDS011;7272;53.668;9.578;2023-02-03T13:49:43;17.43;;;6.80;;
14377;SDS011;7272;53.668;9.578;2023-02-03T13:52:54;22.30;;;6.70;;
14377;SDS011;7272;53.668;9.578;2023-02-03T13:56:01;23.23;;;6.50;;
14377;SDS011;7272;53.668;9.578;2023-02-03T13:59:05;20.57;;;6.53;;
14377;SDS011;7272;53.668;9.578;2023-02-03T14:05:54;20.47;;;7.30;;
14377;SDS011;7272;53.668;9.578;2023-02-03T14:08:58;22.00;;;7.67;;
14377;SDS011;7272;53.668;9.578;2023-02-03T14:12:18;20.67;;;6.30;;
14377;SDS011;7272;53.668;9.578;2023-02-03T14:15:41;23.40;;;7.53;;
14377;SDS011;7272;53.668;9.578;2023-02-03T14:18:46;21.17;;;6.43;;
14377;SDS011;7272;53.668;9.578;2023-02-03T14:21:49;20.73;;;7.97;;
14377;SDS011;7272;53.668;9.578;2023-02-03T14:24:55;22.20;;;6.93;;
14377;SDS011;7272;53.668;9.578;2023-02-03T14:28:06;22.83;;;7.93;;
14377;SDS011;7272;53.668;9.578;2023-02-03T14:31:11;24.30;;;7.13;;
14377;SDS011;7272;53.668;9.578;2023-02-03T14:34:16;25.50;;;6.73;;
14377;SDS011;7272;53.668;9.578;2023-02-03T14:37:20;26.47;;;7.50;;
14377;SDS011;7272;53.668;9.578;2023-02-03T14:40:27;27.23;;;7.63;;
14377;SDS011;7272;53.668;9.578;2023-02-03T14:43:37;26.37;;;7.10;;
14377;SDS011;7272;53.668;9.578;2023-02-03T14:46:49;23.47;;;6.63;;
14377;SDS011;7272;53.668;9.578;2023-02-03T14:50:11;24.58;;;8.25;;
14377;SDS011;7272;53.668;9.578;2023-02-03T14:53:32;23.17;;;8.03;;
14377;SDS011;7272;53.668;9.578;2023-02-03T14:57:05;23.40;;;8.57;;
14377;SDS011;7272;53.668;9.578;2023-02-03T15:00:27;24.57;;;6.80;;
14377;SDS011;7272;53.668;9.578;2023-02-03T15:03:31;20.90;;;6.80;;
14377;SDS011;7272;53.668;9.578;2023-02-03T15:06:38;26.17;;;8.27;;
14377;SDS011;7272;53.668;9.578;2023-02-03T15:09:43;24.23;;;8.03;;
14377;SDS011;7272;53.668;9.578;2023-02-03T15:12:47;24.23;;;7.40;;
14377;SDS011;7272;53.668;9.578;2023-02-03T15:15:52;17.27;;;7.10;;
14377;SDS011;7272;53.668;9.578;2023-02-03T15:18:57;20.77;;;7.07;;
14377;SDS011;7272;53.668;9.578;2023-02-03T15:22:16;26.83;;;8.07;;
14377;SDS011;7272;53.668;9.578;2023-02-03T15:25:20;25.37;;;7.70;;
14377;SDS011;7272;53.668;9.578;2023-02-03T15:28:27;24.97;;;7.10;;
14377;SDS011;7272;53.668;9.578;2023-02-03T15:31:35;22.17;;;6.53;;
14377;SDS011;7272;53.668;9.578;2023-02-03T15:34:40;24.47;;;8.03;;
14377;SDS011;7272;53.668;9.578;2023-02-03T15:37:45;30.53;;;7.80;;
14377;SDS011;7272;53.668;9.578;2023-02-03T15:40:52;21.43;;;6.63;;
14377;SDS011;7272;53.668;9.578;2023-02-03T15:43:58;21.93;;;7.47;;
14377;SDS011;7272;53.668;9.578;2023-02-03T15:47:05;25.53;;;7.77;;
14377;SDS011;7272;53.668;9.578;2023-02-03T15:50:23;27.60;;;7.63;;
14377;SDS011;7272;53.668;9.578;2023-02-03T15:53:30;24.07;;;7.13;;
14377;SDS011;7272;53.668;9.578;2023-02-03T15:56:37;19.93;;;7.00;;
14377;SDS011;7272;53.668;9.578;2023-02-03T15:59:41;31.63;;;8.37;;
14377;SDS011;7272;53.668;9.578;2023-02-03T16:02:48;29.83;;;7.97;;
14377;SDS011;7272;53.668;9.578;2023-02-03T16:05:51;31.47;;;8.47;;
14377;SDS011;7272;53.668;9.578;2023-02-03T16:08:54;25.30;;;7.63;;
14377;SDS011;7272;53.668;9.578;2023-02-03T16:12:02;25.83;;;7.33;;
14377;SDS011;7272;53.668;9.578;2023-02-03T16:15:20;28.02;;;8.48;;
14377;SDS011;7272;53.668;9.578;2023-02-03T16:18:25;23.93;;;7.23;;
14377;SDS011;7272;53.668;9.578;2023-02-03T16:21:29;25.75;;;8.70;;
14377;SDS011;7272;53.668;9.578;2023-02-03T16:24:35;28.23;;;7.83;;
14377;SDS011;7272;53.668;9.578;2023-02-03T16:27:39;24.03;;;7.27;;
14377;SDS011;7272;53.668;9.578;2023-02-03T16:30:54;24.17;;;7.30;;
14377;SDS011;7272;53.668;9.578;2023-02-03T16:34:18;28.97;;;7.67;;
14377;SDS011;7272;53.668;9.578;2023-02-03T16:37:42;25.47;;;7.00;;
14377;SDS011;7272;53.668;9.578;2023-02-03T16:41:02;22.30;;;7.57;;
14377;SDS011;7272;53.668;9.578;2023-02-03T16:44:31;29.83;;;8.10;;
14377;SDS011;7272;53.668;9.578;2023-02-03T16:47:51;26.00;;;7.50;;
14377;SDS011;7272;53.668;9.578;2023-02-03T16:51:12;26.57;;;8.40;;
14377;SDS011;7272;53.668;9.578;2023-02-03T16:54:16;25.37;;;7.63;;
14377;SDS011;7272;53.668;9.578;2023-02-03T16:57:18;22.57;;;8.03;;
14377;SDS011;7272;53.668;9.578;2023-02-03T17:00:20;29.53;;;7.70;;
14377;SDS011;7272;53.668;9.578;2023-02-03T17:03:24;25.60;;;8.47;;
14377;SDS011;7272;53.668;9.578;2023-02-03T17:06:30;25.87;;;7.63;;
14377;SDS011;7272;53.668;9.578;2023-02-03T17:09:33;30.77;;;8.83;;
14377;SDS011;7272;53.668;9.578;2023-02-03T17:12:36;35.30;;;8.77;;
14377;SDS011;7272;53.668;9.578;2023-02-03T17:15:39;34.03;;;10.67;;
14377;SDS011;7272;53.668;9.578;2023-02-03T17:18:42;33.90;;;8.63;;
14377;SDS011;7272;53.668;9.578;2023-02-03T17:21:46;32.37;;;8.37;;
14377;SDS011;7272;53.668;9.578;2023-02-03T17:24:50;30.67;;;9.87;;
14377;SDS011;7272;53.668;9.578;2023-02-03T17:27:55;29.03;;;8.73;;
14377;SDS011;7272;53.668;9.578;2023-02-03T17:30:58;23.10;;;8.83;;
14377;SDS011;7272;53.668;9.578;2023-02-03T17:34:02;27.90;;;8.30;;
14377;SDS011;7272;53.668;9.578;2023-02-03T17:37:05;30.03;;;9.33;;
14377;SDS011;7272;53.668;9.578;2023-02-03T17:40:08;36.23;;;9.67;;
14377;SDS011;7272;53.668;9.578;2023-02-03T17:43:10;44.87;;;9.83;;
14377;SDS011;7272;53.668;9.578;2023-02-03T17:46:14;33.30;;;9.03;;
14377;SDS011;7272;53.668;9.578;2023-02-03T17:49:17;40.03;;;10.80;;
14377;SDS011;7272;53.668;9.578;2023-02-03T17:52:21;35.50;;;10.67;;
14377;SDS011;7272;53.668;9.578;2023-02-03T17:55:23;29.50;;;9.77;;
14377;SDS011;7272;53.668;9.578;2023-02-03T17:58:25;27.13;;;7.87;;
14377;SDS011;7272;53.668;9.578;2023-02-03T18:01:27;37.73;;;10.20;;
14377;SDS011;7272;53.668;9.578;2023-02-03T18:04:30;31.60;;;10.63;;
14377;SDS011;7272;53.668;9.578;2023-02-03T18:07:34;37.53;;;10.60;;
14377;SDS011;7272;53.668;9.578;2023-02-03T18:10:39;27.33;;;9.13;;
14377;SDS011;7272;53.668;9.578;2023-02-03T18:13:45;31.20;;;8.70;;
14377;SDS011;7272;53.668;9.578;2023-02-03T18:16:48;39.70;;;10.50;;
14377;SDS011;7272;53.668;9.578;2023-02-03T18:19:50;40.43;;;10.10;;
14377;SDS011;7272;53.668;9.578;2023-02-03T18:22:54;43.20;;;10.83;;
14377;SDS011;7272;53.668;9.578;2023-02-03T18:25:56;36.83;;;10.13;;
14377;SDS011;7272;53.668;9.578;2023-02-03T18:28:58;42.77;;;10.20;;
14377;SDS011;7272;53.668;9.578;2023-02-03T18:32:00;32.93;;;8.87;;
14377;SDS011;7272;53.668;9.578;2023-02-03T18:35:02;38.30;;;9.67;;
14377;SDS011;7272;53.668;9.578;2023-02-03T18:38:11;41.50;;;9.80;;
14377;SDS011;7272;53.668;9.578;2023-02-03T18:41:14;34.23;;;9.60;;
14377;SDS011;7272;53.668;9.578;2023-02-03T18:44:18;38.60;;;10.20;;
14377;SDS011;7272;53.668;9.578;2023-02-03T18:47:20;33.00;;;9.87;;
14377;SDS011;7272;53.668;9.578;2023-02-03T18:50:22;34.47;;;9.77;;
14377;SDS011;7272;53.668;9.578;2023-02-03T18:53:26;36.50;;;10.53;;